Brownsville South Padre Island International Airport
KBRO : now visible

Airfield :











YOU CAN JOIN US ON...

 
LOGIN :

Register | Disclaimer

   EN    FR    IT 

 









Legend :    VFR   Marginal VFR   IFR   Intensive IFR   Very Intensive IFR
Visi :
Ceiling :
>= 8 km
>= 3000ft
5 to 8 km
1000 to 3000 ft
1500m to 5 km
500 to 1000 ft
800 to 1500m
200 to 500 ft
< 800m
< 200 ft
Symbols :   Thunderstorms  Fog  Heavy snow  Heavy precipitations  Wind > 20 kt






- Airport Elevation : 22 ft
- IATA code : BRO


KBRO - Brownsville South Padre Island International

CURRENT METAR :
  • 200753Z AUTO 16006KT 10SM CLR 26/24 A2977 RMK AO2 SLP078 T02610244

EXPIRED METARs :
  • 200653Z AUTO 15006KT 10SM CLR 26/24 A2977 RMK AO2 SLP081 T02560239
  • 200553Z AUTO 15007KT 10SM CLR 26/24 A2977 RMK AO2 SLP081 T02610244 10289 20256 403280222 50002

TAF KBRO
Valid from the 20 at 06:00 until the 21 at 06:00 UTC


200524Z 2006/2106 15005KT P6SM FEW040 SCT150
TEMPO 2012/2015 BKN015
FM201500 15015G21KT P6SM VCSH SCT015 BKN025
FM202000 15012KT P6SM BKN040
PROB30 2100/2106 4SM TSRA BKN025CB



MET'MAP, your aeronautical weather chart ! - Copyright ORBIFLY December 2007 - Disclaimer

ORBIFLY MET'MAP TEAM :

Programming & Development : Alexandra Zaïnal
Concept & Development : Baudouin d'Aumeries
Co-Development & Prog : Marc-Olivier Méhu
Technical & hardware support : Manuel Goepfert

Contact : metmap@orbifly.com




SOURCES & CREDITS :

   NOAA       Earth
Advisory